FDX507 KDEN-KSAN
Flight info
| Callsign | FDX507 |
|---|---|
| Flight time | N/A |
| Altitude | 34000 |
| Route | BAYLR6 TEHRU PLNDL Q86 TTRUE TOPGN2 |
| Aircraft | A306/H-SDE3FGHIRWY/LB1 |
Departure
| Time | 2026-05-07 05:33 |
|---|---|
| Airport | Denver International Airport (KDEN) |
Arrival
| Time | N/A |
|---|---|
| Airport | San Diego International Airport (KSAN) |
| Time | Latitude | Longitude | Altitude | Speed | Heading |
|---|---|---|---|---|---|
| 2026-05-07 04:53 | 39.82950 | -104.67568 | 5395 ft | 0 kts | 122° |
| 2026-05-07 04:54 | 39.83104 | -104.67486 | 5386 ft | 0 kts | 359° |
| 2026-05-07 05:19 | 39.83083 | -104.67486 | 5387 ft | 4 kts | 359° |
| 2026-05-07 05:19 | 39.83057 | -104.67485 | 5393 ft | 4 kts | 4° |
| 2026-05-07 05:19 | 39.83031 | -104.67492 | 5386 ft | 4 kts | 31° |
| 2026-05-07 05:20 | 39.83014 | -104.67513 | 5386 ft | 4 kts | 74° |
| 2026-05-07 05:20 | 39.83012 | -104.67531 | 5386 ft | 1 kts | 91° |
| 2026-05-07 05:20 | 39.83012 | -104.67534 | 5386 ft | 0 kts | 91° |
| 2026-05-07 05:24 | 39.83013 | -104.67496 | 5387 ft | 11 kts | 89° |
| 2026-05-07 05:24 | 39.83014 | -104.67367 | 5392 ft | 16 kts | 92° |
| 2026-05-07 05:24 | 39.82978 | -104.67218 | 5392 ft | 18 kts | 116° |
| 2026-05-07 05:24 | 39.82942 | -104.67067 | 5404 ft | 18 kts | 98° |
| 2026-05-07 05:25 | 39.82938 | -104.66900 | 5419 ft | 19 kts | 88° |
| 2026-05-07 05:25 | 39.82938 | -104.66727 | 5430 ft | 19 kts | 86° |
| 2026-05-07 05:25 | 39.82936 | -104.66557 | 5442 ft | 19 kts | 93° |
| 2026-05-07 05:25 | 39.82933 | -104.66408 | 5446 ft | 16 kts | 89° |
| 2026-05-07 05:26 | 39.82971 | -104.66292 | 5447 ft | 14 kts | 31° |
| 2026-05-07 05:26 | 39.83068 | -104.66268 | 5447 ft | 15 kts | 1° |
| 2026-05-07 05:26 | 39.83182 | -104.66267 | 5443 ft | 19 kts | 1° |
| 2026-05-07 05:26 | 39.83344 | -104.66264 | 5437 ft | 27 kts | 0° |
| 2026-05-07 05:27 | 39.83542 | -104.66266 | 5435 ft | 29 kts | 0° |
| 2026-05-07 05:27 | 39.83741 | -104.66262 | 5420 ft | 28 kts | 0° |
| 2026-05-07 05:27 | 39.83925 | -104.66256 | 5419 ft | 26 kts | 2° |
| 2026-05-07 05:27 | 39.84101 | -104.66252 | 5417 ft | 24 kts | 1° |
| 2026-05-07 05:28 | 39.84261 | -104.66253 | 5409 ft | 22 kts | 359° |
| 2026-05-07 05:28 | 39.84413 | -104.66254 | 5414 ft | 22 kts | 0° |
| 2026-05-07 05:28 | 39.84560 | -104.66253 | 5412 ft | 21 kts | 2° |
| 2026-05-07 05:28 | 39.84700 | -104.66248 | 5413 ft | 20 kts | 1° |
| 2026-05-07 05:29 | 39.84842 | -104.66246 | 5403 ft | 22 kts | 1° |
| 2026-05-07 05:29 | 39.85015 | -104.66244 | 5398 ft | 27 kts | 360° |
| 2026-05-07 05:29 | 39.85206 | -104.66244 | 5399 ft | 27 kts | 2° |
| 2026-05-07 05:29 | 39.85388 | -104.66239 | 5399 ft | 25 kts | 0° |
| 2026-05-07 05:30 | 39.85556 | -104.66239 | 5399 ft | 23 kts | 2° |
| 2026-05-07 05:30 | 39.85712 | -104.66237 | 5396 ft | 21 kts | 359° |
| 2026-05-07 05:30 | 39.85857 | -104.66234 | 5394 ft | 20 kts | 1° |
| 2026-05-07 05:30 | 39.85999 | -104.66234 | 5390 ft | 20 kts | 359° |
| 2026-05-07 05:31 | 39.86097 | -104.66187 | 5389 ft | 13 kts | 56° |
| 2026-05-07 05:31 | 39.86103 | -104.66155 | 5393 ft | 0 kts | 82° |
| 2026-05-07 05:31 | 39.86104 | -104.66142 | 5393 ft | 5 kts | 83° |
| 2026-05-07 05:31 | 39.86098 | -104.66059 | 5392 ft | 9 kts | 114° |
| 2026-05-07 05:32 | 39.86065 | -104.66029 | 5391 ft | 5 kts | 160° |
| 2026-05-07 05:32 | 39.86019 | -104.66019 | 5392 ft | 11 kts | 176° |
| 2026-05-07 05:32 | 39.85769 | -104.66017 | 5396 ft | 63 kts | 181° |
| 2026-05-07 05:32 | 39.85154 | -104.66026 | 5402 ft | 112 kts | 180° |
| 2026-05-07 05:33 | 39.84235 | -104.66037 | 5418 ft | 151 kts | 181° |
| 2026-05-07 05:33 | 39.83068 | -104.66014 | 5609 ft | 174 kts | 178° |
| 2026-05-07 05:33 | 39.81840 | -104.66004 | 6059 ft | 189 kts | 184° |
| 2026-05-07 05:33 | 39.80426 | -104.66118 | 6392 ft | 210 kts | 185° |
| 2026-05-07 05:34 | 39.78973 | -104.66131 | 7246 ft | 214 kts | 180° |
| 2026-05-07 05:34 | 39.77450 | -104.65991 | 8070 ft | 223 kts | 180° |
| 2026-05-07 05:34 | 39.75946 | -104.66313 | 8807 ft | 227 kts | 211° |
| 2026-05-07 05:34 | 39.74735 | -104.67607 | 9568 ft | 226 kts | 236° |
| 2026-05-07 05:35 | 39.73934 | -104.69519 | 9365 ft | 270 kts | 257° |
| 2026-05-07 05:35 | 39.73679 | -104.72133 | 9173 ft | 307 kts | 274° |
| 2026-05-07 05:35 | 39.74081 | -104.75013 | 8950 ft | 341 kts | 292° |
| 2026-05-07 05:35 | 39.75185 | -104.77528 | 10836 ft | 292 kts | 308° |
| 2026-05-07 05:36 | 39.76359 | -104.79588 | 12437 ft | 277 kts | 304° |
| 2026-05-07 05:36 | 39.77009 | -104.81946 | 13183 ft | 291 kts | 285° |
| 2026-05-07 05:36 | 39.77257 | -104.84652 | 13518 ft | 311 kts | 280° |
| 2026-05-07 05:36 | 39.77459 | -104.87527 | 13826 ft | 328 kts | 280° |
| 2026-05-07 05:37 | 39.77515 | -104.90572 | 14090 ft | 351 kts | 268° |
| 2026-05-07 05:37 | 39.76959 | -104.93767 | 14357 ft | 371 kts | 259° |
| 2026-05-07 05:37 | 39.76207 | -104.97051 | 14620 ft | 386 kts | 258° |
| 2026-05-07 05:37 | 39.75419 | -105.00442 | 15010 ft | 396 kts | 258° |
| 2026-05-07 05:38 | 39.74501 | -105.03851 | 15545 ft | 404 kts | 252° |
| 2026-05-07 05:38 | 39.73403 | -105.07240 | 16143 ft | 408 kts | 251° |
| 2026-05-07 05:38 | 39.72274 | -105.10641 | 16740 ft | 412 kts | 251° |
| 2026-05-07 05:38 | 39.71152 | -105.14027 | 17319 ft | 415 kts | 251° |
| 2026-05-07 05:39 | 39.70003 | -105.17502 | 17906 ft | 418 kts | 251° |
| 2026-05-07 05:39 | 39.68854 | -105.20989 | 18469 ft | 421 kts | 251° |
| 2026-05-07 05:39 | 39.67698 | -105.24499 | 18924 ft | 424 kts | 251° |
| 2026-05-07 05:39 | 39.66543 | -105.28001 | 19337 ft | 428 kts | 251° |
| 2026-05-07 05:40 | 39.65366 | -105.31576 | 19806 ft | 431 kts | 251° |
| 2026-05-07 05:40 | 39.64180 | -105.35165 | 20252 ft | 435 kts | 251° |
| 2026-05-07 05:40 | 39.62981 | -105.38797 | 20694 ft | 438 kts | 251° |
| 2026-05-07 05:40 | 39.61777 | -105.42450 | 21137 ft | 442 kts | 251° |
| 2026-05-07 05:41 | 39.60564 | -105.46130 | 21566 ft | 446 kts | 251° |
| 2026-05-07 05:41 | 39.59335 | -105.49847 | 22003 ft | 449 kts | 251° |
| 2026-05-07 05:41 | 39.58092 | -105.53576 | 22429 ft | 452 kts | 251° |
| 2026-05-07 05:41 | 39.56853 | -105.57288 | 22837 ft | 455 kts | 251° |
| 2026-05-07 05:42 | 39.55593 | -105.61071 | 23276 ft | 457 kts | 251° |
| 2026-05-07 05:42 | 39.54452 | -105.64922 | 23662 ft | 459 kts | 254° |
| 2026-05-07 05:42 | 39.53378 | -105.68820 | 24033 ft | 461 kts | 255° |
| 2026-05-07 05:42 | 39.52299 | -105.72762 | 24343 ft | 463 kts | 254° |
| 2026-05-07 05:43 | 39.51211 | -105.76708 | 24680 ft | 465 kts | 254° |
| 2026-05-07 05:43 | 39.50119 | -105.80657 | 24994 ft | 467 kts | 254° |
| 2026-05-07 05:43 | 39.49029 | -105.84588 | 25283 ft | 470 kts | 254° |
| 2026-05-07 05:43 | 39.47917 | -105.88586 | 25589 ft | 471 kts | 254° |
| 2026-05-07 05:44 | 39.46798 | -105.92597 | 25867 ft | 474 kts | 254° |
| 2026-05-07 05:44 | 39.45674 | -105.96620 | 26180 ft | 476 kts | 254° |
| 2026-05-07 05:44 | 39.44559 | -106.00606 | 26461 ft | 478 kts | 254° |
| 2026-05-07 05:44 | 39.43422 | -106.04663 | 26757 ft | 480 kts | 254° |
| 2026-05-07 05:45 | 39.42281 | -106.08732 | 27030 ft | 482 kts | 254° |
| 2026-05-07 05:45 | 39.41132 | -106.12814 | 27349 ft | 482 kts | 254° |
| 2026-05-07 05:45 | 39.39984 | -106.16884 | 27775 ft | 481 kts | 254° |
| 2026-05-07 05:45 | 39.38839 | -106.20945 | 28181 ft | 480 kts | 254° |
| 2026-05-07 05:46 | 39.37689 | -106.25012 | 28607 ft | 479 kts | 254° |
| 2026-05-07 05:46 | 39.36546 | -106.29050 | 29009 ft | 478 kts | 254° |
| 2026-05-07 05:46 | 39.35400 | -106.33097 | 29401 ft | 477 kts | 254° |
| 2026-05-07 05:46 | 39.34272 | -106.37075 | 29756 ft | 477 kts | 254° |
| 2026-05-07 05:47 | 39.33130 | -106.41091 | 30119 ft | 476 kts | 254° |
| 2026-05-07 05:47 | 39.31987 | -106.45108 | 30441 ft | 476 kts | 254° |
| 2026-05-07 05:47 | 39.30844 | -106.49118 | 30769 ft | 475 kts | 254° |
| 2026-05-07 05:47 | 39.29699 | -106.53125 | 31107 ft | 474 kts | 254° |
| 2026-05-07 05:48 | 39.28562 | -106.57105 | 31446 ft | 472 kts | 254° |
| 2026-05-07 05:48 | 39.27423 | -106.61083 | 31775 ft | 471 kts | 254° |
| 2026-05-07 05:48 | 39.26299 | -106.64999 | 32115 ft | 470 kts | 254° |
| 2026-05-07 05:48 | 39.25138 | -106.68951 | 32464 ft | 471 kts | 252° |
| 2026-05-07 05:49 | 39.23661 | -106.72760 | 32777 ft | 476 kts | 243° |
| 2026-05-07 05:49 | 39.21773 | -106.76290 | 33112 ft | 478 kts | 238° |
| 2026-05-07 05:49 | 39.19760 | -106.79708 | 33406 ft | 479 kts | 236° |
| 2026-05-07 05:49 | 39.17693 | -106.83073 | 33745 ft | 479 kts | 236° |
| 2026-05-07 05:50 | 39.15606 | -106.86416 | 34059 ft | 478 kts | 236° |
| 2026-05-07 05:50 | 39.13519 | -106.89755 | 34278 ft | 479 kts | 236° |
| 2026-05-07 05:50 | 39.11457 | -106.93070 | 34293 ft | 478 kts | 236° |
| 2026-05-07 05:51 | 39.07306 | -106.99786 | 34280 ft | 478 kts | 236° |
| 2026-05-07 05:51 | 39.03181 | -107.06488 | 34260 ft | 477 kts | 236° |
| 2026-05-07 05:52 | 38.99079 | -107.13151 | 34249 ft | 477 kts | 236° |
| 2026-05-07 05:52 | 38.94955 | -107.19836 | 34237 ft | 477 kts | 236° |
| 2026-05-07 05:53 | 38.90832 | -107.26502 | 34241 ft | 477 kts | 236° |
| 2026-05-07 05:53 | 38.86685 | -107.33191 | 34235 ft | 477 kts | 236° |
| 2026-05-07 05:54 | 38.82572 | -107.39806 | 34235 ft | 477 kts | 236° |
| 2026-05-07 05:54 | 38.78433 | -107.46452 | 34232 ft | 477 kts | 236° |
| 2026-05-07 05:55 | 38.74288 | -107.53091 | 34228 ft | 477 kts | 236° |
| 2026-05-07 05:55 | 38.70144 | -107.59722 | 34241 ft | 476 kts | 236° |
| 2026-05-07 05:56 | 38.66012 | -107.66319 | 34260 ft | 476 kts | 236° |
| 2026-05-07 05:56 | 38.61860 | -107.72930 | 34278 ft | 476 kts | 236° |
| 2026-05-07 05:57 | 38.57707 | -107.79530 | 34297 ft | 477 kts | 236° |
| 2026-05-07 05:57 | 38.53542 | -107.86136 | 34292 ft | 477 kts | 235° |
| 2026-05-07 05:58 | 38.49372 | -107.92736 | 34290 ft | 477 kts | 235° |
| 2026-05-07 05:58 | 38.45198 | -107.99329 | 34289 ft | 477 kts | 235° |
| 2026-05-07 05:59 | 38.41037 | -108.05888 | 34279 ft | 477 kts | 235° |
| 2026-05-07 05:59 | 38.36847 | -108.12479 | 34263 ft | 478 kts | 235° |
| 2026-05-07 06:00 | 38.32655 | -108.19060 | 34241 ft | 478 kts | 235° |
| 2026-05-07 06:00 | 38.28482 | -108.25597 | 34219 ft | 478 kts | 235° |
| 2026-05-07 06:01 | 38.24272 | -108.32183 | 34213 ft | 478 kts | 235° |
| 2026-05-07 06:01 | 38.20061 | -108.38753 | 34211 ft | 478 kts | 235° |
| 2026-05-07 06:02 | 38.15876 | -108.45271 | 34200 ft | 478 kts | 234° |
| 2026-05-07 06:02 | 38.11649 | -108.51840 | 34191 ft | 478 kts | 234° |
| 2026-05-07 06:03 | 38.07436 | -108.58376 | 34257 ft | 478 kts | 234° |
| 2026-05-07 06:03 | 38.03232 | -108.64888 | 34183 ft | 478 kts | 234° |
| 2026-05-07 06:04 | 37.99005 | -108.71412 | 34184 ft | 478 kts | 234° |
| 2026-05-07 06:04 | 37.94774 | -108.77933 | 34177 ft | 478 kts | 234° |
| 2026-05-07 06:05 | 37.90566 | -108.84404 | 34173 ft | 478 kts | 234° |
| 2026-05-07 06:05 | 37.86321 | -108.90925 | 34171 ft | 479 kts | 234° |
| 2026-05-07 06:06 | 37.82792 | -108.96336 | 34176 ft | 479 kts | 234° |
| 2026-05-07 06:06 | 37.77848 | -109.03898 | 34163 ft | 479 kts | 234° |
| 2026-05-07 06:07 | 37.74312 | -109.09298 | 34164 ft | 480 kts | 234° |
| 2026-05-07 06:07 | 37.70049 | -109.15798 | 34186 ft | 480 kts | 234° |
| 2026-05-07 06:08 | 37.65764 | -109.22313 | 34200 ft | 481 kts | 233° |
| 2026-05-07 06:08 | 37.61484 | -109.28804 | 34223 ft | 481 kts | 233° |
| 2026-05-07 06:09 | 37.57228 | -109.35250 | 34242 ft | 481 kts | 233° |
| 2026-05-07 06:09 | 37.53056 | -109.41557 | 34251 ft | 481 kts | 233° |
| 2026-05-07 06:10 | 37.48828 | -109.47938 | 34244 ft | 482 kts | 233° |
| 2026-05-07 06:10 | 37.44530 | -109.54413 | 34224 ft | 482 kts | 233° |
| 2026-05-07 06:11 | 37.40225 | -109.60883 | 34196 ft | 482 kts | 233° |
| 2026-05-07 06:11 | 37.35915 | -109.67348 | 34169 ft | 482 kts | 233° |
| 2026-05-07 06:12 | 37.34661 | -109.69226 | 34156 ft | 482 kts | 233° |